Airfield :
LOGIN :

Register | Disclaimer

   EN    FR    IT 

 










Legend :    VFR   Marginal VFR   IFR   Intensive IFR   Very Intensive IFR
Visi :
Ceiling :
>= 8 km
>= 3000ft
5 to 8 km
1000 to 3000 ft
1500m to 5 km
500 to 1000 ft
800 to 1500m
200 to 500 ft
< 800m
< 200 ft
Symbols :   Thunderstorms  Fog  Heavy snow  Heavy precipitations  Wind > 20 kt
SIGMETs :     Misc.  Thunderstorms  Icing  Turbulence  Mountain Waves  Volcanic Ashes






- Airport Elevation : 65 ft
- IATA code : PMO


LICJ - Palermo Punta Raisi

CURRENT METAR :
  • 130420Z 19011KT 9999 BKN035 13/09 Q1005

EXPIRED METARs :
  • 130350Z 20011KT 9999 BKN030 13/08 Q1005
  • 130320Z 25017KT 9999 BKN030 15/10 Q1006 RESHRA
  • 130250Z 20012KT 9999 FEW025 SCT040 12/09 Q1006 RESHRA
  • 130220Z 21014KT 7000 SHRA SCT025 SCT040 12/09 Q1006
  • 130150Z 21014KT 9999 -RA FEW030 SCT040 13/08 Q1007

TAF TAF LICJ
Valid from the 13 at 00:00 until the 14 at 00:00 UTC


122300Z 1300/1324 22012KT 9999 SCT025
TEMPO 1303/1318 4000 SHRA
BECMG 1306/1308 25015G25KT
BECMG 1318/1320 28025G35KT



MET'MAP, your aeronautical weather chart ! - Copyright ORBIFLY December 2007 - Disclaimer

ORBIFLY MET'MAP TEAM :

Programming & Development : Alexandra Zaïnal
Concept & original design : Baudouin d'Aumeries
Assistance for programming : Marc-Olivier Méhu
Technical & hardware support : Manuel Goepfert

Contact : metmap@orbifly.com




SOURCES & CREDITS :

   NOAA